In Rescue
 
Open Full Screen Window  High Contrast Mode
Wind Gusting 00 knots
04
January 24, 2020 10:07 PM EST
Present Weather: Mist
Weather Information
Wind Direction
  120 °
Wind Speed
  04 kt (5 mph)
Wind Gust
  00 kt (0 mph)
Altimeter
29.81 in
Visibility
2 SM
Temperature
03° C
37° F
Dewpoint
02° C
36° F
Humidity
93%
1hr Rain Fall
00.00 in.
24hr Rain Fall
00.03 in.
Sky Condition
Overcast @ 300 ft
LIFR

METAR KD95 250307Z AUTO 12004KT 2SM BR OVC003 03/02 A2981 RMK AO2 T00280020

FAA Disclaimer: The data displayed is for advisory purposes only and is not to be used for flight planning or operations.